sensor_id;sensor_type;location;lat;lon;timestamp;P1;P4;P2;P0;N10;N4;N25;N1;N05;TS
66311;SPS30;53114;51.138;6.008;2023-09-19T00:02:02;3.08;2.87;2.45;1.84;14.76;14.74;14.65;14.12;11.67;0.66
66311;SPS30;53114;51.138;6.008;2023-09-19T00:04:32;3.30;3.06;2.59;1.91;15.27;15.25;15.14;14.54;11.93;0.68
66311;SPS30;53114;51.138;6.008;2023-09-19T00:06:58;3.06;2.82;2.36;1.71;13.70;13.68;13.58;13.00;10.59;0.69
66311;SPS30;53114;51.138;6.008;2023-09-19T00:09:24;3.55;3.26;2.70;1.91;15.33;15.31;15.18;14.47;11.68;0.70
66311;SPS30;53114;51.138;6.008;2023-09-19T00:11:53;3.17;2.92;2.43;1.75;14.00;13.97;13.86;13.25;10.75;0.70
66311;SPS30;53114;51.138;6.008;2023-09-19T00:14:19;3.07;2.85;2.41;1.78;14.23;14.21;14.11;13.56;11.13;0.68
66311;SPS30;53114;51.138;6.008;2023-09-19T00:16:45;3.32;3.07;2.58;1.89;15.14;15.12;15.01;14.40;11.77;0.68
66311;SPS30;53114;51.138;6.008;2023-09-19T00:19:12;3.24;2.99;2.51;1.82;14.60;14.58;14.47;13.87;11.31;0.68
66311;SPS30;53114;51.138;6.008;2023-09-19T00:21:39;3.55;3.24;2.65;1.83;14.69;14.67;14.53;13.79;11.01;0.72
66311;SPS30;53114;51.138;6.008;2023-09-19T00:24:06;3.20;2.94;2.43;1.71;13.71;13.69;13.58;12.93;10.42;0.71
66311;SPS30;53114;51.138;6.008;2023-09-19T00:26:34;3.59;3.30;2.73;1.94;15.57;15.55;15.42;14.71;11.89;0.71
66311;SPS30;53114;51.138;6.008;2023-09-19T00:29:00;3.36;3.09;2.56;1.81;14.53;14.51;14.39;13.72;11.07;0.71
66311;SPS30;53114;51.138;6.008;2023-09-19T00:31:29;3.55;3.27;2.72;1.95;15.63;15.61;15.49;14.80;11.99;0.70
66311;SPS30;53114;51.138;6.008;2023-09-19T00:33:55;3.71;3.41;2.81;1.97;15.80;15.77;15.63;14.88;11.96;0.71
66311;SPS30;53114;51.138;6.008;2023-09-19T00:36:25;3.40;3.12;2.59;1.85;14.79;14.76;14.64;13.98;11.30;0.71
66311;SPS30;53114;51.138;6.008;2023-09-19T00:38:51;3.43;3.17;2.66;1.94;15.50;15.48;15.36;14.72;12.01;0.69
66311;SPS30;53114;51.138;6.008;2023-09-19T00:41:17;3.22;2.98;2.50;1.83;14.63;14.61;14.51;13.91;11.36;0.69
66311;SPS30;53114;51.138;6.008;2023-09-19T00:43:43;3.42;3.17;2.66;1.94;15.56;15.53;15.42;14.78;12.08;0.68
66311;SPS30;53114;51.138;6.008;2023-09-19T00:46:08;3.14;2.91;2.44;1.78;14.28;14.26;14.16;13.58;11.09;0.69
66311;SPS30;53114;51.138;6.008;2023-09-19T00:48:41;3.23;2.99;2.52;1.84;14.77;14.74;14.64;14.04;11.49;0.70
66311;SPS30;53114;51.138;6.008;2023-09-19T00:51:09;3.56;3.30;2.78;2.04;16.36;16.34;16.22;15.57;12.75;0.71
66311;SPS30;53114;51.138;6.008;2023-09-19T00:53:36;3.59;3.32;2.80;2.06;16.47;16.45;16.33;15.67;12.83;0.69
66311;SPS30;53114;51.138;6.008;2023-09-19T00:56:04;3.03;2.82;2.43;1.85;14.83;14.81;14.72;14.23;11.82;0.65
66311;SPS30;53114;51.138;6.008;2023-09-19T00:58:32;3.10;2.87;2.42;1.78;14.22;14.20;14.09;13.53;11.08;0.69
66311;SPS30;53114;51.138;6.008;2023-09-19T01:01:01;3.48;3.20;2.67;1.91;15.32;15.29;15.17;14.50;11.76;0.71
66311;SPS30;53114;51.138;6.008;2023-09-19T01:03:33;3.38;3.12;2.61;1.89;15.12;15.09;14.98;14.34;11.67;0.71
66311;SPS30;53114;51.138;6.008;2023-09-19T01:05:59;3.16;2.93;2.49;1.84;14.73;14.71;14.60;14.04;11.53;0.69
66311;SPS30;53114;51.138;6.008;2023-09-19T01:08:28;3.48;3.22;2.72;1.99;15.94;15.92;15.80;15.17;12.41;0.69
66311;SPS30;53114;51.138;6.008;2023-09-19T01:10:56;3.39;3.13;2.62;1.90;15.18;15.16;15.04;14.40;11.72;0.70
66311;SPS30;53114;51.138;6.008;2023-09-19T01:16:19;3.53;3.24;2.69;1.92;15.37;15.35;15.22;14.53;11.75;0.70
66311;SPS30;53114;51.138;6.008;2023-09-19T01:19:02;3.09;2.87;2.43;1.80;14.40;14.38;14.28;13.72;11.27;0.68
66311;SPS30;53114;51.138;6.008;2023-09-19T01:27:00;3.72;3.42;2.84;2.03;16.25;16.23;16.10;15.37;12.44;0.69
66311;SPS30;53114;51.138;6.008;2023-09-19T01:30:09;3.37;3.11;2.60;1.88;15.05;15.02;14.91;14.27;11.60;0.68
66311;SPS30;53114;51.138;6.008;2023-09-19T01:32:36;3.25;3.00;2.52;1.83;14.64;14.62;14.51;13.90;11.33;0.67
66311;SPS30;53114;51.138;6.008;2023-09-19T01:35:04;3.19;2.95;2.46;1.77;14.21;14.19;14.08;13.47;10.95;0.67
66311;SPS30;53114;51.138;6.008;2023-09-19T01:37:30;3.37;3.10;2.56;1.80;14.41;14.39;14.27;13.59;10.94;0.70
66311;SPS30;53114;51.138;6.008;2023-09-19T01:42:59;3.14;2.89;2.39;1.70;13.64;13.62;13.51;12.89;10.42;0.70
66311;SPS30;53114;51.138;6.008;2023-09-19T01:45:56;3.17;2.92;2.42;1.72;13.78;13.76;13.65;13.02;10.52;0.70
66311;SPS30;53114;51.138;6.008;2023-09-19T01:48:43;3.21;2.93;2.41;1.67;13.39;13.36;13.24;12.58;10.06;0.71
66311;SPS30;53114;51.138;6.008;2023-09-19T01:51:21;3.57;3.26;2.64;1.80;14.46;14.44;14.30;13.53;10.74;0.74
66311;SPS30;53114;51.138;6.008;2023-09-19T01:54:03;3.83;3.50;2.85;1.96;15.69;15.66;15.52;14.70;11.70;0.73
66311;SPS30;53114;51.138;6.008;2023-09-19T01:57:41;3.39;3.10;2.53;1.74;13.96;13.94;13.81;13.09;10.43;0.73
66311;SPS30;53114;51.138;6.008;2023-09-19T01:59:43;3.30;3.03;2.50;1.76;14.10;14.07;13.95;13.29;10.69;0.70
66311;SPS30;53114;51.138;6.008;2023-09-19T02:02:17;3.33;3.07;2.56;1.83;14.67;14.65;14.53;13.89;11.26;0.70
66311;SPS30;53114;51.138;6.008;2023-09-19T02:04:43;3.26;3.01;2.54;1.86;14.89;14.87;14.76;14.16;11.59;0.69
66311;SPS30;53114;51.138;6.008;2023-09-19T02:07:09;3.32;3.07;2.56;1.85;14.84;14.82;14.70;14.07;11.45;0.69
66311;SPS30;53114;51.138;6.008;2023-09-19T02:09:35;3.25;2.99;2.49;1.79;14.31;14.28;14.17;13.54;10.98;0.69
66311;SPS30;53114;51.138;6.008;2023-09-19T02:12:04;3.09;2.86;2.40;1.75;14.01;13.99;13.89;13.31;10.87;0.69
66311;SPS30;53114;51.138;6.008;2023-09-19T02:14:30;3.52;3.25;2.72;1.96;15.71;15.68;15.56;14.89;12.11;0.69
66311;SPS30;53114;51.138;6.008;2023-09-19T02:16:57;3.16;2.93;2.48;1.84;14.74;14.72;14.62;14.06;11.56;0.67
66311;SPS30;53114;51.138;6.008;2023-09-19T02:19:24;2.90;2.69;2.28;1.68;13.46;13.44;13.35;12.82;10.53;0.69
66311;SPS30;53114;51.138;6.008;2023-09-19T02:21:50;3.25;3.00;2.51;1.81;14.49;14.47;14.36;13.74;11.17;0.71
66311;SPS30;53114;51.138;6.008;2023-09-19T02:24:15;3.04;2.81;2.37;1.74;13.94;13.92;13.82;13.26;10.85;0.71
66311;SPS30;53114;51.138;6.008;2023-09-19T02:26:41;3.27;3.02;2.52;1.83;14.62;14.60;14.48;13.86;11.28;0.71
66311;SPS30;53114;51.138;6.008;2023-09-19T02:29:08;3.36;3.11;2.62;1.92;15.38;15.36;15.24;14.63;11.97;0.69
66311;SPS30;53114;51.138;6.008;2023-09-19T02:31:38;3.08;2.86;2.42;1.78;14.26;14.24;14.14;13.58;11.14;0.68
66311;SPS30;53114;51.138;6.008;2023-09-19T02:34:04;2.96;2.74;2.30;1.68;13.44;13.42;13.32;12.77;10.43;0.70
66311;SPS30;53114;51.138;6.008;2023-09-19T02:36:32;3.16;2.92;2.45;1.78;14.28;14.26;14.15;13.56;11.06;0.70
66311;SPS30;53114;51.138;6.008;2023-09-19T02:38:58;3.04;2.82;2.38;1.75;13.99;13.97;13.87;13.31;10.90;0.69
66311;SPS30;53114;51.138;6.008;2023-09-19T02:41:24;3.27;3.04;2.58;1.92;15.39;15.37;15.27;14.69;12.09;0.69
66311;SPS30;53114;51.138;6.008;2023-09-19T02:43:50;3.02;2.80;2.38;1.76;14.12;14.10;14.00;13.46;11.07;0.68
66311;SPS30;53114;51.138;6.008;2023-09-19T02:46:15;2.93;2.70;2.25;1.61;12.91;12.89;12.79;12.22;9.91;0.70
66311;SPS30;53114;51.138;6.008;2023-09-19T02:48:42;3.16;2.90;2.41;1.71;13.70;13.68;13.57;12.94;10.46;0.70
66311;SPS30;53114;51.138;6.008;2023-09-19T02:51:08;3.11;2.86;2.37;1.69;13.56;13.54;13.43;12.82;10.38;0.71
66311;SPS30;53114;51.138;6.008;2023-09-19T02:53:34;3.14;2.89;2.39;1.68;13.49;13.47;13.35;12.72;10.25;0.71
66311;SPS30;53114;51.138;6.008;2023-09-19T02:56:01;3.32;3.04;2.51;1.77;14.19;14.17;14.05;13.38;10.77;0.72
66311;SPS30;53114;51.138;6.008;2023-09-19T02:58:29;3.58;3.27;2.65;1.81;14.50;14.47;14.34;13.57;10.76;0.75
66311;SPS30;53114;51.138;6.008;2023-09-19T03:00:56;3.36;3.06;2.49;1.70;13.62;13.60;13.47;12.75;10.12;0.74
66311;SPS30;53114;51.138;6.008;2023-09-19T03:03:23;3.34;3.07;2.53;1.79;14.31;14.29;14.17;13.50;10.87;0.71
66311;SPS30;53114;51.138;6.008;2023-09-19T03:05:48;3.07;2.83;2.37;1.71;13.68;13.66;13.56;12.97;10.55;0.69
66311;SPS30;53114;51.138;6.008;2023-09-19T03:08:17;2.98;2.76;2.32;1.69;13.53;13.51;13.41;12.86;10.50;0.69
66311;SPS30;53114;51.138;6.008;2023-09-19T03:10:45;3.25;3.01;2.53;1.85;14.79;14.77;14.66;14.06;11.49;0.70
66311;SPS30;53114;51.138;6.008;2023-09-19T03:13:12;2.81;2.61;2.23;1.67;13.33;13.32;13.23;12.74;10.51;0.68
66311;SPS30;53114;51.138;6.008;2023-09-19T03:15:41;2.90;2.70;2.30;1.73;13.86;13.84;13.75;13.25;10.95;0.68
66311;SPS30;53114;51.138;6.008;2023-09-19T03:18:10;3.35;3.09;2.58;1.86;14.86;14.84;14.72;14.08;11.44;0.71
66311;SPS30;53114;51.138;6.008;2023-09-19T03:20:36;3.63;3.32;2.70;1.85;14.82;14.80;14.66;13.88;11.04;0.74
66311;SPS30;53114;51.138;6.008;2023-09-19T03:23:02;3.68;3.36;2.74;1.88;15.06;15.03;14.89;14.11;11.23;0.73
66311;SPS30;53114;51.138;6.008;2023-09-19T03:25:29;3.48;3.17;2.59;1.77;14.21;14.19;14.06;13.32;10.59;0.74
66311;SPS30;53114;51.138;6.008;2023-09-19T03:27:56;3.51;3.19;2.58;1.73;13.89;13.86;13.73;12.95;10.21;0.75
66311;SPS30;53114;51.138;6.008;2023-09-19T03:30:23;3.65;3.33;2.70;1.84;14.77;14.74;14.60;13.82;10.96;0.74
66311;SPS30;53114;51.138;6.008;2023-09-19T03:32:50;3.52;3.24;2.69;1.92;15.41;15.39;15.26;14.57;11.80;0.72
66311;SPS30;53114;51.138;6.008;2023-09-19T03:35:16;3.37;3.11;2.59;1.87;14.97;14.95;14.83;14.19;11.53;0.71
66311;SPS30;53114;51.138;6.008;2023-09-19T03:37:44;3.07;2.83;2.35;1.67;13.41;13.39;13.28;12.68;10.26;0.71
66311;SPS30;53114;51.138;6.008;2023-09-19T03:40:10;3.70;3.38;2.76;1.90;15.23;15.21;15.07;14.29;11.38;0.74
66311;SPS30;53114;51.138;6.008;2023-09-19T03:42:38;4.17;3.81;3.12;2.15;17.26;17.23;17.07;16.20;12.93;0.74
66311;SPS30;53114;51.138;6.008;2023-09-19T03:45:09;3.20;2.95;2.45;1.74;13.96;13.94;13.82;13.19;10.67;0.72
66311;SPS30;53114;51.138;6.008;2023-09-19T03:47:46;3.33;3.05;2.52;1.78;14.24;14.22;14.10;13.43;10.81;0.72
66311;SPS30;53114;51.138;6.008;2023-09-19T03:50:17;3.41;3.12;2.55;1.76;14.09;14.07;13.94;13.22;10.55;0.74
66311;SPS30;53114;51.138;6.008;2023-09-19T03:52:44;3.63;3.31;2.67;1.80;14.45;14.42;14.28;13.49;10.64;0.76
66311;SPS30;53114;51.138;6.008;2023-09-19T03:55:10;3.43;3.15;2.60;1.83;14.68;14.65;14.53;13.84;11.14;0.72
66311;SPS30;53114;51.138;6.008;2023-09-19T03:57:37;3.54;3.24;2.67;1.87;15.00;14.98;14.85;14.13;11.35;0.72
66311;SPS30;53114;51.138;6.008;2023-09-19T04:00:04;3.56;3.27;2.70;1.90;15.26;15.23;15.10;14.39;11.58;0.72
66311;SPS30;53114;51.138;6.008;2023-09-19T04:02:39;3.93;3.59;2.92;1.99;15.98;15.95;15.80;14.96;11.88;0.75
66311;SPS30;53114;51.138;6.008;2023-09-19T04:05:05;3.68;3.35;2.71;1.84;14.72;14.69;14.55;13.75;10.87;0.76
66311;SPS30;53114;51.138;6.008;2023-09-19T04:07:31;3.70;3.37;2.73;1.86;14.87;14.84;14.70;13.90;11.00;0.76
66311;SPS30;53114;51.138;6.008;2023-09-19T04:09:57;4.16;3.79;3.08;2.09;16.78;16.75;16.59;15.69;12.44;0.76
66311;SPS30;53114;51.138;6.008;2023-09-19T04:12:23;4.06;3.71;3.02;2.06;16.52;16.49;16.34;15.47;12.29;0.76
66311;SPS30;53114;51.138;6.008;2023-09-19T04:14:49;3.40;3.13;2.60;1.84;14.77;14.74;14.62;13.95;11.27;0.72
66311;SPS30;53114;51.138;6.008;2023-09-19T04:17:16;3.60;3.30;2.72;1.91;15.28;15.26;15.12;14.39;11.56;0.73
66311;SPS30;53114;51.138;6.008;2023-09-19T04:19:42;3.75;3.44;2.84;2.01;16.09;16.07;15.93;15.18;12.23;0.73
66311;SPS30;53114;51.138;6.008;2023-09-19T04:22:07;3.72;3.42;2.82;1.99;15.96;15.93;15.80;15.05;12.12;0.74
66311;SPS30;53114;51.138;6.008;2023-09-19T04:24:34;3.99;3.65;2.97;2.04;16.37;16.34;16.19;15.35;12.22;0.75
66311;SPS30;53114;51.138;6.008;2023-09-19T04:27:00;3.79;3.46;2.82;1.94;15.53;15.50;15.36;14.56;11.59;0.74
66311;SPS30;53114;51.138;6.008;2023-09-19T04:29:27;3.90;3.57;2.91;2.00;16.03;16.00;15.85;15.02;11.96;0.74
66311;SPS30;53114;51.138;6.008;2023-09-19T04:31:54;3.58;3.28;2.70;1.89;15.11;15.08;14.95;14.22;11.41;0.74
66311;SPS30;53114;51.138;6.008;2023-09-19T04:34:21;3.82;3.49;2.84;1.95;15.63;15.61;15.46;14.65;11.66;0.74
66311;SPS30;53114;51.138;6.008;2023-09-19T04:36:49;4.09;3.72;3.00;2.01;16.10;16.07;15.90;15.00;11.80;0.75
66311;SPS30;53114;51.138;6.008;2023-09-19T04:39:15;3.97;3.62;2.94;2.00;16.02;15.99;15.84;14.98;11.88;0.74
66311;SPS30;53114;51.138;6.008;2023-09-19T04:41:42;3.79;3.47;2.85;1.99;15.97;15.94;15.80;15.02;12.04;0.73
66311;SPS30;53114;51.138;6.008;2023-09-19T04:44:08;4.12;3.76;3.06;2.09;16.72;16.69;16.53;15.65;12.42;0.76
66311;SPS30;53114;51.138;6.008;2023-09-19T04:46:34;3.80;3.45;2.78;1.87;14.98;14.96;14.81;13.97;11.00;0.77
66311;SPS30;53114;51.138;6.008;2023-09-19T04:49:00;3.93;3.58;2.88;1.92;15.41;15.38;15.22;14.34;11.27;0.77
66311;SPS30;53114;51.138;6.008;2023-09-19T04:51:27;3.59;3.26;2.62;1.74;13.98;13.95;13.80;13.00;10.20;0.76
66311;SPS30;53114;51.138;6.008;2023-09-19T04:53:58;3.79;3.46;2.81;1.92;15.40;15.37;15.22;14.41;11.44;0.74
66311;SPS30;53114;51.138;6.008;2023-09-19T04:56:24;3.42;3.13;2.58;1.81;14.48;14.46;14.33;13.64;10.95;0.72
66311;SPS30;53114;51.138;6.008;2023-09-19T04:58:50;3.33;3.05;2.51;1.74;13.98;13.95;13.83;13.14;10.52;0.73
66311;SPS30;53114;51.138;6.008;2023-09-19T05:01:16;3.54;3.24;2.66;1.85;14.82;14.79;14.66;13.93;11.15;0.74
66311;SPS30;53114;51.138;6.008;2023-09-19T05:03:41;3.65;3.33;2.72;1.87;15.00;14.97;14.83;14.06;11.20;0.75
66311;SPS30;53114;51.138;6.008;2023-09-19T05:06:07;3.90;3.55;2.88;1.96;15.69;15.66;15.51;14.66;11.61;0.76
66311;SPS30;53114;51.138;6.008;2023-09-19T05:08:33;4.27;3.89;3.13;2.09;16.78;16.75;16.58;15.63;12.29;0.77
66311;SPS30;53114;51.138;6.008;2023-09-19T05:11:01;3.66;3.33;2.68;1.79;14.36;14.33;14.18;13.37;10.51;0.78
66311;SPS30;53114;51.138;6.008;2023-09-19T05:13:27;4.29;3.89;3.11;2.04;16.37;16.34;16.16;15.18;11.83;0.79
66311;SPS30;53114;51.138;6.008;2023-09-19T05:15:53;4.06;3.67;2.89;1.86;14.90;14.87;14.69;13.73;10.58;0.82
66311;SPS30;53114;51.138;6.008;2023-09-19T05:18:19;4.11;3.71;2.94;1.91;15.29;15.25;15.08;14.12;10.92;0.81
66311;SPS30;53114;51.138;6.008;2023-09-19T05:20:45;4.01;3.63;2.90;1.90;15.22;15.19;15.02;14.10;10.97;0.80
66311;SPS30;53114;51.138;6.008;2023-09-19T05:23:11;3.90;3.54;2.85;1.91;15.29;15.26;15.11;14.24;11.20;0.78
66311;SPS30;53114;51.138;6.008;2023-09-19T05:25:38;3.70;3.38;2.75;1.89;15.15;15.13;14.99;14.20;11.30;0.75
66311;SPS30;53114;51.138;6.008;2023-09-19T05:28:05;3.95;3.59;2.88;1.92;15.40;15.37;15.21;14.33;11.25;0.78
66311;SPS30;53114;51.138;6.008;2023-09-19T05:30:33;3.83;3.48;2.79;1.86;14.89;14.86;14.71;13.85;10.85;0.78
66311;SPS30;53114;51.138;6.008;2023-09-19T05:32:59;3.70;3.37;2.73;1.85;14.80;14.78;14.63;13.83;10.93;0.76
66311;SPS30;53114;51.138;6.008;2023-09-19T05:35:25;3.76;3.42;2.76;1.86;14.92;14.89;14.75;13.92;10.98;0.76
66311;SPS30;53114;51.138;6.008;2023-09-19T05:37:51;3.87;3.52;2.84;1.92;15.36;15.33;15.17;14.33;11.30;0.75
66311;SPS30;53114;51.138;6.008;2023-09-19T05:40:18;3.26;2.99;2.45;1.70;13.59;13.57;13.44;12.77;10.20;0.73
66311;SPS30;53114;51.138;6.008;2023-09-19T05:42:44;3.48;3.18;2.60;1.80;14.44;14.41;14.28;13.56;10.83;0.75
66311;SPS30;53114;51.138;6.008;2023-09-19T05:45:11;3.89;3.55;2.87;1.94;15.55;15.52;15.37;14.52;11.47;0.76
66311;SPS30;53114;51.138;6.008;2023-09-19T05:47:44;3.76;3.41;2.72;1.79;14.36;14.34;14.18;13.33;10.40;0.77
66311;SPS30;53114;51.138;6.008;2023-09-19T05:50:11;3.69;3.35;2.69;1.80;14.40;14.37;14.22;13.40;10.52;0.76
66311;SPS30;53114;51.138;6.008;2023-09-19T05:52:38;3.35;3.07;2.52;1.76;14.12;14.10;13.98;13.29;10.65;0.73
66311;SPS30;53114;51.138;6.008;2023-09-19T05:55:05;3.29;3.01;2.46;1.70;13.58;13.56;13.43;12.74;10.16;0.74
66311;SPS30;53114;51.138;6.008;2023-09-19T05:57:33;3.28;2.99;2.41;1.63;13.04;13.01;12.88;12.16;9.59;0.75
66311;SPS30;53114;51.138;6.008;2023-09-19T05:59:59;3.40;3.11;2.52;1.72;13.80;13.78;13.64;12.92;10.25;0.74
66311;SPS30;53114;51.138;6.008;2023-09-19T06:02:25;3.87;3.51;2.82;1.87;14.98;14.95;14.80;13.92;10.90;0.77
66311;SPS30;53114;51.138;6.008;2023-09-19T06:04:54;3.79;3.42;2.71;1.75;14.05;14.02;13.86;12.97;10.02;0.78
66311;SPS30;53114;51.138;6.008;2023-09-19T06:07:21;3.27;2.96;2.34;1.51;12.15;12.12;11.99;11.22;8.67;0.77
66311;SPS30;53114;51.138;6.008;2023-09-19T06:09:48;3.77;3.41;2.71;1.77;14.17;14.14;13.99;13.12;10.18;0.76
66311;SPS30;53114;51.138;6.008;2023-09-19T06:12:14;3.31;3.00;2.39;1.57;12.63;12.60;12.46;11.71;9.13;0.75
66311;SPS30;53114;51.138;6.008;2023-09-19T06:14:42;3.55;3.24;2.64;1.81;14.49;14.47;14.33;13.58;10.80;0.72
66311;SPS30;53114;51.138;6.008;2023-09-19T06:17:08;3.46;3.14;2.53;1.68;13.49;13.46;13.32;12.55;9.84;0.74
66311;SPS30;53114;51.138;6.008;2023-09-19T06:19:34;3.59;3.26;2.62;1.75;14.01;13.98;13.84;13.04;10.24;0.75
66311;SPS30;53114;51.138;6.008;2023-09-19T06:22:00;3.44;3.14;2.55;1.74;13.92;13.89;13.76;13.02;10.32;0.74
66311;SPS30;53114;51.138;6.008;2023-09-19T06:24:26;3.81;3.47;2.80;1.89;15.15;15.12;14.97;14.14;11.16;0.75
66311;SPS30;53114;51.138;6.008;2023-09-19T06:26:52;3.41;3.12;2.55;1.76;14.11;14.09;13.96;13.24;10.56;0.73
66311;SPS30;53114;51.138;6.008;2023-09-19T06:29:18;3.17;2.92;2.42;1.72;13.75;13.73;13.62;12.99;10.49;0.71
66311;SPS30;53114;51.138;6.008;2023-09-19T06:31:46;3.23;2.96;2.43;1.69;13.55;13.53;13.41;12.74;10.20;0.72
66311;SPS30;53114;51.138;6.008;2023-09-19T06:34:12;3.40;3.10;2.51;1.71;13.68;13.66;13.53;12.79;10.13;0.72
66311;SPS30;53114;51.138;6.008;2023-09-19T06:36:40;3.94;3.61;2.96;2.06;16.48;16.46;16.31;15.49;12.40;0.72
66311;SPS30;53114;51.138;6.008;2023-09-19T06:39:07;3.68;3.37;2.77;1.94;15.56;15.53;15.39;14.64;11.76;0.73
66311;SPS30;53114;51.138;6.008;2023-09-19T06:41:36;3.66;3.36;2.78;1.96;15.74;15.71;15.58;14.85;11.97;0.71
66311;SPS30;53114;51.138;6.008;2023-09-19T06:44:09;3.28;3.00;2.45;1.69;13.53;13.50;13.38;12.69;10.12;0.73
66311;SPS30;53114;51.138;6.008;2023-09-19T06:46:35;3.81;3.47;2.81;1.90;15.26;15.23;15.08;14.25;11.27;0.77
66311;SPS30;53114;51.138;6.008;2023-09-19T06:49:04;3.93;3.57;2.87;1.91;15.32;15.29;15.13;14.25;11.18;0.79
66311;SPS30;53114;51.138;6.008;2023-09-19T06:51:32;3.37;3.05;2.44;1.61;12.88;12.85;12.72;11.95;9.32;0.78
66311;SPS30;53114;51.138;6.008;2023-09-19T06:54:01;3.78;3.43;2.76;1.84;14.76;14.73;14.58;13.74;10.79;0.77
66311;SPS30;53114;51.138;6.008;2023-09-19T06:56:27;3.87;3.52;2.84;1.90;15.27;15.24;15.08;14.23;11.20;0.77
66311;SPS30;53114;51.138;6.008;2023-09-19T06:58:53;3.94;3.56;2.81;1.80;14.46;14.43;14.26;13.33;10.27;0.81
66311;SPS30;53114;51.138;6.008;2023-09-19T07:01:19;3.88;3.50;2.77;1.79;14.34;14.31;14.14;13.23;10.21;0.80
66311;SPS30;53114;51.138;6.008;2023-09-19T07:03:45;4.20;3.79;2.99;1.92;15.41;15.38;15.20;14.20;10.94;0.80
66311;SPS30;53114;51.138;6.008;2023-09-19T07:06:11;3.62;3.28;2.61;1.70;13.60;13.58;13.42;12.58;9.76;0.79
66311;SPS30;53114;51.138;6.008;2023-09-19T07:08:37;3.95;3.58;2.87;1.89;15.16;15.13;14.97;14.07;10.99;0.78
66311;SPS30;53114;51.138;6.008;2023-09-19T07:11:03;4.24;3.83;3.04;1.97;15.79;15.76;15.58;14.59;11.29;0.78
66311;SPS30;53114;51.138;6.008;2023-09-19T07:13:31;3.77;3.41;2.71;1.77;14.19;14.16;14.00;13.13;10.20;0.78
66311;SPS30;53114;51.138;6.008;2023-09-19T07:16:00;3.72;3.38;2.70;1.79;14.34;14.31;14.16;13.32;10.41;0.77
66311;SPS30;53114;51.138;6.008;2023-09-19T07:18:26;3.63;3.30;2.65;1.76;14.15;14.12;13.97;13.16;10.32;0.76
66311;SPS30;53114;51.138;6.008;2023-09-19T07:20:56;3.78;3.43;2.75;1.83;14.68;14.65;14.50;13.65;10.70;0.76
66311;SPS30;53114;51.138;6.008;2023-09-19T07:23:26;3.71;3.38;2.73;1.84;14.71;14.68;14.54;13.72;10.82;0.76
66311;SPS30;53114;51.138;6.008;2023-09-19T07:25:56;3.75;3.40;2.71;1.77;14.23;14.20;14.04;13.18;10.26;0.78
66311;SPS30;53114;51.138;6.008;2023-09-19T07:28:22;3.73;3.38;2.70;1.78;14.30;14.27;14.12;13.27;10.37;0.78
66311;SPS30;53114;51.138;6.008;2023-09-19T07:30:48;4.05;3.66;2.91;1.90;15.23;15.20;15.03;14.10;10.95;0.78
66311;SPS30;53114;51.138;6.008;2023-09-19T07:33:14;3.76;3.40;2.70;1.76;14.11;14.08;13.92;13.05;10.12;0.80
66311;SPS30;53114;51.138;6.008;2023-09-19T07:35:40;3.34;3.05;2.49;1.72;13.75;13.73;13.60;12.90;10.28;0.77
66311;SPS30;53114;51.138;6.008;2023-09-19T07:38:11;3.46;3.17;2.59;1.79;14.37;14.35;14.22;13.49;10.78;0.76
66311;SPS30;53114;51.138;6.008;2023-09-19T07:40:37;3.80;3.46;2.79;1.88;15.09;15.07;14.92;14.09;11.12;0.77
66311;SPS30;53114;51.138;6.008;2023-09-19T07:43:03;3.50;3.18;2.55;1.69;13.57;13.54;13.40;12.61;9.88;0.76
66311;SPS30;53114;51.138;6.008;2023-09-19T07:45:32;3.73;3.40;2.75;1.87;14.98;14.96;14.81;14.01;11.09;0.73
66311;SPS30;53114;51.138;6.008;2023-09-19T07:47:59;2.97;2.71;2.22;1.53;12.23;12.20;12.09;11.47;9.14;0.71
66311;SPS30;53114;51.138;6.008;2023-09-19T07:50:29;3.63;3.31;2.70;1.86;14.90;14.88;14.74;13.97;11.13;0.71
66311;SPS30;53114;51.138;6.008;2023-09-19T07:52:56;3.44;3.13;2.54;1.73;13.83;13.81;13.68;12.93;10.24;0.71
66311;SPS30;53114;51.138;6.008;2023-09-19T07:55:22;3.06;2.80;2.29;1.59;12.74;12.72;12.60;11.97;9.57;0.69
66311;SPS30;53114;51.138;6.008;2023-09-19T07:57:51;2.92;2.68;2.20;1.54;12.34;12.32;12.21;11.61;9.32;0.70
66311;SPS30;53114;51.138;6.008;2023-09-19T08:00:18;3.56;3.25;2.64;1.79;14.36;14.33;14.19;13.43;10.64;0.73
66311;SPS30;53114;51.138;6.008;2023-09-19T08:02:45;3.60;3.27;2.62;1.74;13.93;13.90;13.75;12.94;10.13;0.74
66311;SPS30;53114;51.138;6.008;2023-09-19T08:05:11;3.27;2.99;2.43;1.67;13.37;13.35;13.23;12.53;9.97;0.72
66311;SPS30;53114;51.138;6.008;2023-09-19T08:07:41;3.21;2.94;2.41;1.68;13.42;13.40;13.28;12.62;10.10;0.72
66311;SPS30;53114;51.138;6.008;2023-09-19T08:10:09;3.30;3.02;2.46;1.70;13.59;13.56;13.44;12.74;10.16;0.73
66311;SPS30;53114;51.138;6.008;2023-09-19T08:12:39;3.35;3.06;2.48;1.70;13.60;13.57;13.45;12.73;10.11;0.74
66311;SPS30;53114;51.138;6.008;2023-09-19T08:15:15;3.69;3.35;2.70;1.81;14.53;14.50;14.35;13.54;10.66;0.75
66311;SPS30;53114;51.138;6.008;2023-09-19T08:17:43;3.25;2.96;2.39;1.62;12.97;12.95;12.82;12.11;9.56;0.75
66311;SPS30;53114;51.138;6.008;2023-09-19T08:20:09;3.68;3.35;2.70;1.81;14.51;14.49;14.34;13.53;10.65;0.76
66311;SPS30;53114;51.138;6.008;2023-09-19T08:22:42;3.38;3.07;2.45;1.61;12.94;12.91;12.77;12.00;9.37;0.77
66311;SPS30;53114;51.138;6.008;2023-09-19T08:25:11;3.82;3.47;2.77;1.83;14.70;14.67;14.51;13.65;10.67;0.76
66311;SPS30;53114;51.138;6.008;2023-09-19T08:27:37;3.57;3.24;2.60;1.73;13.89;13.87;13.72;12.92;10.14;0.77
66311;SPS30;53114;51.138;6.008;2023-09-19T08:30:03;3.25;2.97;2.43;1.67;13.40;13.38;13.25;12.57;10.02;0.75
66311;SPS30;53114;51.138;6.008;2023-09-19T08:32:29;2.90;2.65;2.16;1.49;11.92;11.90;11.79;11.18;8.91;0.74
66311;SPS30;53114;51.138;6.008;2023-09-19T08:34:55;2.68;2.44;1.98;1.35;10.81;10.79;10.68;10.11;8.01;0.74
66311;SPS30;53114;51.138;6.008;2023-09-19T08:37:21;3.15;2.86;2.31;1.56;12.48;12.46;12.34;11.65;9.19;0.74
66311;SPS30;53114;51.138;6.008;2023-09-19T08:39:47;3.04;2.77;2.24;1.52;12.15;12.13;12.01;11.35;8.98;0.74
66311;SPS30;53114;51.138;6.008;2023-09-19T08:42:13;3.37;3.06;2.47;1.65;13.25;13.22;13.09;12.34;9.71;0.75
66311;SPS30;53114;51.138;6.008;2023-09-19T08:44:39;3.49;3.18;2.55;1.70;13.66;13.64;13.50;12.72;9.99;0.76
66311;SPS30;53114;51.138;6.008;2023-09-19T08:47:08;3.21;2.93;2.37;1.61;12.90;12.88;12.75;12.05;9.54;0.74
66311;SPS30;53114;51.138;6.008;2023-09-19T08:52:36;3.04;2.79;2.31;1.63;13.03;13.01;12.90;12.29;9.90;0.72
66311;SPS30;53114;51.138;6.008;2023-09-19T08:55:11;3.04;2.80;2.33;1.66;13.31;13.29;13.18;12.59;10.19;0.71
66311;SPS30;53114;51.138;6.008;2023-09-19T08:57:46;2.88;2.65;2.20;1.57;12.60;12.58;12.48;11.92;9.64;0.70
66311;SPS30;53114;51.138;6.008;2023-09-19T09:00:15;2.64;2.42;1.99;1.39;11.13;11.11;11.02;10.48;8.40;0.72
66311;SPS30;53114;51.138;6.008;2023-09-19T09:02:43;3.04;2.77;2.24;1.53;12.22;12.20;12.08;11.43;9.05;0.73
66311;SPS30;53114;51.138;6.008;2023-09-19T09:05:13;3.28;2.99;2.42;1.64;13.12;13.10;12.97;12.26;9.69;0.74
66311;SPS30;53114;51.138;6.008;2023-09-19T09:07:41;3.27;2.97;2.40;1.62;12.99;12.97;12.84;12.13;9.57;0.74
66311;SPS30;53114;51.138;6.008;2023-09-19T09:10:08;3.53;3.20;2.56;1.70;13.60;13.58;13.43;12.64;9.89;0.75
66311;SPS30;53114;51.138;6.008;2023-09-19T09:12:35;3.36;3.06;2.47;1.67;13.36;13.33;13.20;12.46;9.84;0.74
66311;SPS30;53114;51.138;6.008;2023-09-19T09:15:02;3.28;2.98;2.40;1.60;12.83;12.80;12.67;11.94;9.37;0.75
66311;SPS30;53114;51.138;6.008;2023-09-19T09:17:29;3.54;3.22;2.59;1.74;13.92;13.89;13.75;12.96;10.19;0.74
66311;SPS30;53114;51.138;6.008;2023-09-19T09:19:56;3.08;2.81;2.28;1.55;12.45;12.42;12.30;11.64;9.22;0.73
66311;SPS30;53114;51.138;6.008;2023-09-19T09:22:22;3.52;3.21;2.61;1.78;14.30;14.28;14.14;13.39;10.63;0.73
66311;SPS30;53114;51.138;6.008;2023-09-19T09:24:54;3.21;2.92;2.37;1.60;12.84;12.81;12.69;11.99;9.48;0.75
66311;SPS30;53114;51.138;6.008;2023-09-19T09:27:23;2.97;2.70;2.18;1.47;11.74;11.72;11.60;10.95;8.63;0.75
66311;SPS30;53114;51.138;6.008;2023-09-19T09:29:50;3.40;3.08;2.46;1.62;12.99;12.97;12.83;12.06;9.41;0.76